METAR Data
IDs: Format: Raw Decoded Include TAF

Data at: 2146 UTC 18 Sep 2018

KBVO 182053Z AUTO 23006KT 10SM SCT065 SCT080 33/19 A2989 RMK AO2 SLP111 T03330194 56018
KBVO 181953Z AUTO 22010G16KT 10SM CLR 35/19 A2990 RMK AO2 SLP112 T03500189
KBVO 181853Z AUTO 19010G19KT 10SM FEW060 34/19 A2992 RMK AO2 SLP118 T03440194
KBVO 181753Z 20011G17KT 10SM FEW055 34/20 A2995 RMK AO2 SLP128 T03440200 10344 20189 58014
KBVO 181653Z 23009G16KT 210V270 10SM CLR 33/20 A2997 RMK AO2 SLP138 T03280200
KBVO 181553Z 20008KT 10SM CLR 32/21 A2999 RMK AO2 SLP144 T03220211
KBVO 181453Z 21004KT 10SM CLR 29/22 A2999 RMK AO2 SLP144 T02940217 50003
KBVO 181353Z 16004KT 10SM CLR 24/22 A2999 RMK AO2 SLP146 T02440217
KBVO 181253Z 00000KT 4SM BR CLR 20/20 A2999 RMK AO2 SLP146 T02000200
KBVO 181153Z 00000KT 4SM BR CLR 19/18 A2998 RMK AO2 SLP142 T01890183 10211 20189 51002
KBVO 181151Z 00000KT 4SM BR CLR 19/18 A2998 RMK AO2
KBVO 181140Z 00000KT 2 1/2SM BR CLR 19/19 A2998 RMK AO2 T01890189
KBVO 181053Z AUTO 00000KT 6SM BR CLR 19/19 A2998 RMK AO2 SLP140 T01890189
KBVO 180953Z AUTO 00000KT 5SM BR CLR 19/19 A2997 RMK AO2 SLP138 T01940189
KBVO 180853Z AUTO 00000KT 4SM BR CLR 20/19 A2997 RMK AO2 SLP137 T02000194 56002
KBVO 180753Z AUTO 00000KT 7SM CLR 20/20 A2997 RMK AO2 SLP138 T02000200
KBVO 180653Z AUTO 00000KT 7SM CLR 21/20 A2997 RMK AO2 SLP138 T02060200
KBVO 180553Z AUTO 00000KT 8SM CLR 21/20 A2998 RMK AO2 SLP139 T02110200 10294 20206 403440178 51006
KBVO 180453Z AUTO 00000KT 8SM CLR 22/21 A2997 RMK AO2 SLP138 T02170206
KBVO 180353Z AUTO 00000KT 9SM CLR 22/21 A2997 RMK AO2 SLP136 T02220211 TSNO
KBVO 180253Z AUTO 00000KT 10SM CLR 23/21 A2996 RMK AO2 SLP134 T02280211 53014 TSNO
KBVO 180153Z AUTO 00000KT 10SM CLR 23/22 A2994 RMK AO2 SLP128 T02330217
KBVO 180053Z AUTO 00000KT 10SM CLR 26/22 A2992 RMK AO2 SLP123 T02560217
KBVO 172353Z AUTO 00000KT 10SM CLR 29/22 A2991 RMK AO2 SLP119 T02940217 10344 20294 55005
KBVO 172253Z 15005KT 10SM FEW080 32/20 A2991 RMK AO2 SLP119 T03220200
KBVO 172153Z 18007KT 10SM CLR 33/19 A2992 RMK AO2 SLP120 T03280194
KBVO 172053Z AUTO 15005KT 10SM FEW060 FEW075 33/19 A2993 RMK AO2 SLP123 T03280194 56020 TSNO
KBVO 171953Z AUTO VRB04KT 10SM FEW060 SCT080 OVC100 34/19 A2995 RMK AO2 SLP129 T03440194 TSNO
KBVO 171853Z AUTO 15006KT 10SM CLR 33/19 A2997 RMK AO2 SLP136 T03330194 TSNO
KBVO 171753Z AUTO VRB04KT 10SM BKN049 33/21 A2999 RMK AO2 SLP144 T03280206 10328 20178 58008 TSNO
KBVO 171653Z AUTO VRB04KT 10SM CLR 31/21 A3001 RMK AO2 SLP149 T03110206 TSNO
KBVO 171553Z 15004KT 10SM CLR 28/21 A3001 RMK AO2 SLP153 T02830211
KBVO 171453Z 00000KT 10SM OVC085 26/20 A3001 RMK AO2 SLP153 T02610200 51013
KBVO 171353Z 00000KT 10SM CLR 22/20 A3001 RMK AO2 SLP151 T02220200
KBVO 171253Z 00000KT 9SM CLR 19/18 A3000 RMK AO2 SLP148 T01940183
KBVO 171153Z 00000KT 8SM CLR 18/17 A2997 RMK AO2 SLP140 T01780172 10194 20178 53004
KBVO 171053Z AUTO 00000KT 6SM BR CLR 18/17 A2997 RMK AO2 SLP137 T01780172 TSNO
KBVO 170953Z AUTO 00000KT 9SM CLR 18/18 A2996 RMK AO2 SLP133 T01830178 TSNO